sensor_id;sensor_type;location;lat;lon;timestamp;pressure;altitude;pressure_sealevel;temperature;humidity
73016;BME280;61893;50.074;14.440;2022-08-25T00:02:02;98876.66;;;18.71;88.10
73016;BME280;61893;50.074;14.440;2022-08-25T00:04:33;98872.97;;;18.72;87.59
73016;BME280;61893;50.074;14.440;2022-08-25T00:07:22;98871.22;;;18.64;87.80
73016;BME280;61893;50.074;14.440;2022-08-25T00:10:15;98873.63;;;18.53;88.50
73016;BME280;61893;50.074;14.440;2022-08-25T00:13:06;98879.88;;;18.60;88.29
73016;BME280;61893;50.074;14.440;2022-08-25T00:16:11;98864.34;;;18.55;88.55
73016;BME280;61893;50.074;14.440;2022-08-25T00:18:38;98861.41;;;18.57;88.48
73016;BME280;61893;50.074;14.440;2022-08-25T00:21:05;98865.97;;;18.56;88.03
73016;BME280;61893;50.074;14.440;2022-08-25T00:23:41;98866.88;;;18.63;87.75
73016;BME280;61893;50.074;14.440;2022-08-25T00:26:12;98856.25;;;18.55;87.75
73016;BME280;61893;50.074;14.440;2022-08-25T00:28:53;98862.84;;;18.53;88.03
73016;BME280;61893;50.074;14.440;2022-08-25T00:31:38;98857.81;;;18.43;88.57
73016;BME280;61893;50.074;14.440;2022-08-25T00:34:09;98861.59;;;18.49;88.25
73016;BME280;61893;50.074;14.440;2022-08-25T00:36:54;98862.59;;;18.48;88.79
73016;BME280;61893;50.074;14.440;2022-08-25T00:39:22;98860.94;;;18.46;88.61
73016;BME280;61893;50.074;14.440;2022-08-25T00:42:11;98862.16;;;18.44;88.59
73016;BME280;61893;50.074;14.440;2022-08-25T00:44:40;98862.75;;;18.39;88.84
73016;BME280;61893;50.074;14.440;2022-08-25T00:47:16;98865.03;;;18.42;88.86
73016;BME280;61893;50.074;14.440;2022-08-25T00:49:58;98859.44;;;18.37;88.80
73016;BME280;61893;50.074;14.440;2022-08-25T00:52:27;98859.03;;;18.40;88.94
73016;BME280;61893;50.074;14.440;2022-08-25T00:54:58;98843.69;;;18.41;88.97
73016;BME280;61893;50.074;14.440;2022-08-25T00:57:32;98853.56;;;18.34;89.03
73016;BME280;61893;50.074;14.440;2022-08-25T01:00:01;98854.19;;;18.29;89.33
73016;BME280;61893;50.074;14.440;2022-08-25T01:02:27;98856.09;;;18.14;89.66
73016;BME280;61893;50.074;14.440;2022-08-25T01:05:12;98850.53;;;18.15;90.34
73016;BME280;61893;50.074;14.440;2022-08-25T01:08:00;98850.69;;;18.14;89.89
73016;BME280;61893;50.074;14.440;2022-08-25T01:10:36;98846.53;;;18.11;89.99
73016;BME280;61893;50.074;14.440;2022-08-25T01:13:16;98841.22;;;18.18;90.04
73016;BME280;61893;50.074;14.440;2022-08-25T01:15:45;98839.09;;;18.13;89.93
73016;BME280;61893;50.074;14.440;2022-08-25T01:18:14;98843.22;;;18.09;90.55
73016;BME280;61893;50.074;14.440;2022-08-25T01:20:47;98840.91;;;18.06;90.59
73016;BME280;61893;50.074;14.440;2022-08-25T01:23:27;98838.34;;;17.98;90.79
73016;BME280;61893;50.074;14.440;2022-08-25T01:26:28;98840.00;;;17.99;90.94
73016;BME280;61893;50.074;14.440;2022-08-25T01:29:23;98842.44;;;17.94;91.34
73016;BME280;61893;50.074;14.440;2022-08-25T01:31:54;98842.00;;;17.90;91.40
73016;BME280;61893;50.074;14.440;2022-08-25T01:34:38;98836.81;;;17.89;91.11
73016;BME280;61893;50.074;14.440;2022-08-25T01:37:08;98831.06;;;17.92;91.08
73016;BME280;61893;50.074;14.440;2022-08-25T01:39:34;98829.31;;;17.84;91.00
73016;BME280;61893;50.074;14.440;2022-08-25T01:44:49;98829.78;;;17.73;91.00
73016;BME280;61893;50.074;14.440;2022-08-25T01:47:18;98825.03;;;17.75;90.93
73016;BME280;61893;50.074;14.440;2022-08-25T01:50:04;98818.50;;;17.63;91.50
73016;BME280;61893;50.074;14.440;2022-08-25T01:55:41;98827.78;;;17.60;91.80
73016;BME280;61893;50.074;14.440;2022-08-25T01:59:03;98827.31;;;17.56;91.79
73016;BME280;61893;50.074;14.440;2022-08-25T02:01:53;98836.03;;;17.59;91.77
73016;BME280;61893;50.074;14.440;2022-08-25T02:04:19;98832.13;;;17.61;92.13
73016;BME280;61893;50.074;14.440;2022-08-25T02:06:50;98837.06;;;17.58;92.43
73016;BME280;61893;50.074;14.440;2022-08-25T02:09:17;98836.41;;;17.55;92.09
73016;BME280;61893;50.074;14.440;2022-08-25T02:11:52;98837.69;;;17.60;92.17
73016;BME280;61893;50.074;14.440;2022-08-25T02:14:18;98828.25;;;17.64;91.71
73016;BME280;61893;50.074;14.440;2022-08-25T02:16:47;98834.00;;;17.61;91.62
73016;BME280;61893;50.074;14.440;2022-08-25T02:19:14;98829.63;;;17.60;91.67
73016;BME280;61893;50.074;14.440;2022-08-25T02:21:43;98833.06;;;17.53;92.19
73016;BME280;61893;50.074;14.440;2022-08-25T02:24:12;98833.72;;;17.55;91.95
73016;BME280;61893;50.074;14.440;2022-08-25T02:26:40;98830.66;;;17.59;91.55
73016;BME280;61893;50.074;14.440;2022-08-25T02:29:15;98828.47;;;17.47;92.54
73016;BME280;61893;50.074;14.440;2022-08-25T02:31:42;98829.28;;;17.48;92.47
73016;BME280;61893;50.074;14.440;2022-08-25T02:34:09;98827.47;;;17.48;92.17
73016;BME280;61893;50.074;14.440;2022-08-25T02:36:36;98825.97;;;17.46;92.28
73016;BME280;61893;50.074;14.440;2022-08-25T02:39:06;98822.19;;;17.40;92.40
73016;BME280;61893;50.074;14.440;2022-08-25T02:41:35;98828.50;;;17.32;93.30
73016;BME280;61893;50.074;14.440;2022-08-25T02:44:37;98824.25;;;17.23;93.53
73016;BME280;61893;50.074;14.440;2022-08-25T02:47:03;98823.22;;;17.24;93.41
73016;BME280;61893;50.074;14.440;2022-08-25T02:49:35;98826.34;;;17.28;93.60
73016;BME280;61893;50.074;14.440;2022-08-25T02:52:00;98827.41;;;17.27;93.52
73016;BME280;61893;50.074;14.440;2022-08-25T02:54:39;98820.09;;;17.21;93.78
73016;BME280;61893;50.074;14.440;2022-08-25T02:57:05;98822.78;;;17.21;94.06
73016;BME280;61893;50.074;14.440;2022-08-25T02:59:31;98815.91;;;17.18;94.03
73016;BME280;61893;50.074;14.440;2022-08-25T03:01:57;98818.22;;;17.21;93.85
73016;BME280;61893;50.074;14.440;2022-08-25T03:04:48;98819.72;;;17.24;93.44
73016;BME280;61893;50.074;14.440;2022-08-25T03:07:29;98819.72;;;17.24;93.68
73016;BME280;61893;50.074;14.440;2022-08-25T03:10:27;98818.88;;;17.23;93.84
73016;BME280;61893;50.074;14.440;2022-08-25T03:12:53;98822.56;;;17.22;93.44
73016;BME280;61893;50.074;14.440;2022-08-25T03:15:19;98819.50;;;17.25;93.53
73016;BME280;61893;50.074;14.440;2022-08-25T03:20:27;98819.06;;;17.22;93.72
73016;BME280;61893;50.074;14.440;2022-08-25T03:23:12;98816.94;;;17.17;93.99
73016;BME280;61893;50.074;14.440;2022-08-25T03:25:39;98817.19;;;17.22;93.83
73016;BME280;61893;50.074;14.440;2022-08-25T03:29:20;98814.13;;;17.25;93.27
73016;BME280;61893;50.074;14.440;2022-08-25T03:32:03;98821.13;;;17.20;93.61
73016;BME280;61893;50.074;14.440;2022-08-25T03:35:05;98813.06;;;17.20;93.48
73016;BME280;61893;50.074;14.440;2022-08-25T03:37:39;98816.75;;;17.19;93.64
73016;BME280;61893;50.074;14.440;2022-08-25T03:40:09;98814.72;;;17.21;93.71
73016;BME280;61893;50.074;14.440;2022-08-25T03:43:08;98813.22;;;17.18;93.97
73016;BME280;61893;50.074;14.440;2022-08-25T03:45:42;98814.50;;;17.22;93.59
73016;BME280;61893;50.074;14.440;2022-08-25T03:48:19;98815.97;;;17.25;93.64
73016;BME280;61893;50.074;14.440;2022-08-25T03:50:55;98814.31;;;17.24;93.46
73016;BME280;61893;50.074;14.440;2022-08-25T03:54:16;98805.88;;;17.27;92.99
73016;BME280;61893;50.074;14.440;2022-08-25T03:57:33;98814.41;;;17.30;92.33
73016;BME280;61893;50.074;14.440;2022-08-25T04:00:51;98811.25;;;17.27;92.58
73016;BME280;61893;50.074;14.440;2022-08-25T04:03:23;98812.53;;;17.31;92.51
73016;BME280;61893;50.074;14.440;2022-08-25T04:06:29;98808.00;;;17.31;92.44
73016;BME280;61893;50.074;14.440;2022-08-25T04:08:55;98806.16;;;17.32;92.73
73016;BME280;61893;50.074;14.440;2022-08-25T04:11:50;98811.59;;;17.39;92.59
73016;BME280;61893;50.074;14.440;2022-08-25T04:14:17;98802.69;;;17.38;91.55
73016;BME280;61893;50.074;14.440;2022-08-25T04:17:20;98808.09;;;17.38;90.67
73016;BME280;61893;50.074;14.440;2022-08-25T04:20:15;98799.94;;;17.31;90.13
73016;BME280;61893;50.074;14.440;2022-08-25T04:22:49;98803.56;;;17.24;90.34
73016;BME280;61893;50.074;14.440;2022-08-25T04:25:52;98811.09;;;17.14;90.57
73016;BME280;61893;50.074;14.440;2022-08-25T04:28:21;98800.53;;;17.12;90.84
73016;BME280;61893;50.074;14.440;2022-08-25T04:31:08;98802.88;;;17.00;91.52
73016;BME280;61893;50.074;14.440;2022-08-25T04:34:26;98799.81;;;17.03;91.46
73016;BME280;61893;50.074;14.440;2022-08-25T04:40:32;98794.63;;;16.87;92.01
73016;BME280;61893;50.074;14.440;2022-08-25T04:42:59;98803.03;;;16.99;91.81
73016;BME280;61893;50.074;14.440;2022-08-25T04:45:58;98806.56;;;16.99;91.15
73016;BME280;61893;50.074;14.440;2022-08-25T04:49:32;98811.38;;;17.04;91.01
73016;BME280;61893;50.074;14.440;2022-08-25T04:52:46;98805.34;;;17.02;91.10
73016;BME280;61893;50.074;14.440;2022-08-25T04:55:17;98797.59;;;16.92;91.93
73016;BME280;61893;50.074;14.440;2022-08-25T04:57:47;98801.94;;;16.93;91.95
73016;BME280;61893;50.074;14.440;2022-08-25T05:00:13;98798.59;;;16.91;92.19
73016;BME280;61893;50.074;14.440;2022-08-25T05:02:43;98797.31;;;16.87;92.53
73016;BME280;61893;50.074;14.440;2022-08-25T05:05:51;98801.66;;;16.88;92.70
73016;BME280;61893;50.074;14.440;2022-08-25T05:08:47;98797.31;;;16.87;92.85
73016;BME280;61893;50.074;14.440;2022-08-25T05:11:20;98806.94;;;16.96;92.32
73016;BME280;61893;50.074;14.440;2022-08-25T05:14:36;98800.09;;;17.08;91.24
73016;BME280;61893;50.074;14.440;2022-08-25T05:18:36;98805.06;;;17.26;91.09
73016;BME280;61893;50.074;14.440;2022-08-25T05:22:14;98807.41;;;17.15;90.96
73016;BME280;61893;50.074;14.440;2022-08-25T05:26:19;98809.97;;;17.23;90.95
73016;BME280;61893;50.074;14.440;2022-08-25T05:33:48;98814.50;;;17.37;90.65
73016;BME280;61893;50.074;14.440;2022-08-25T05:37:25;98817.75;;;17.54;89.94
73016;BME280;61893;50.074;14.440;2022-08-25T05:40:51;98809.94;;;17.38;90.03
73016;BME280;61893;50.074;14.440;2022-08-25T05:44:35;98804.13;;;17.34;90.28
73016;BME280;61893;50.074;14.440;2022-08-25T05:47:30;98807.44;;;17.36;90.46
73016;BME280;61893;50.074;14.440;2022-08-25T05:49:56;98807.91;;;17.25;90.65
73016;BME280;61893;50.074;14.440;2022-08-25T05:52:22;98804.88;;;17.13;91.77
73016;BME280;61893;50.074;14.440;2022-08-25T05:54:49;98810.16;;;17.21;90.96
73016;BME280;61893;50.074;14.440;2022-08-25T05:57:18;98807.53;;;17.43;90.36
73016;BME280;61893;50.074;14.440;2022-08-25T05:59:59;98809.69;;;17.54;89.64
73016;BME280;61893;50.074;14.440;2022-08-25T06:02:45;98805.50;;;17.66;89.41
73016;BME280;61893;50.074;14.440;2022-08-25T06:05:22;98806.31;;;17.67;89.23
73016;BME280;61893;50.074;14.440;2022-08-25T06:07:50;98806.28;;;17.82;88.75
73016;BME280;61893;50.074;14.440;2022-08-25T06:10:34;98807.25;;;17.95;88.11
73016;BME280;61893;50.074;14.440;2022-08-25T06:13:00;98800.72;;;18.05;87.26
73016;BME280;61893;50.074;14.440;2022-08-25T06:15:26;98810.31;;;18.14;87.61
73016;BME280;61893;50.074;14.440;2022-08-25T06:17:52;98810.81;;;18.24;86.86
73016;BME280;61893;50.074;14.440;2022-08-25T06:20:23;98815.78;;;18.20;87.03
73016;BME280;61893;50.074;14.440;2022-08-25T06:22:49;98810.53;;;18.40;85.82
73016;BME280;61893;50.074;14.440;2022-08-25T06:25:18;98810.22;;;18.57;85.36
73016;BME280;61893;50.074;14.440;2022-08-25T06:27:44;98806.66;;;18.50;85.85
73016;BME280;61893;50.074;14.440;2022-08-25T06:30:12;98810.88;;;18.59;85.43
73016;BME280;61893;50.074;14.440;2022-08-25T06:32:41;98809.22;;;18.58;85.15
73016;BME280;61893;50.074;14.440;2022-08-25T06:35:14;98810.13;;;18.72;85.13
73016;BME280;61893;50.074;14.440;2022-08-25T06:37:41;98807.78;;;18.90;83.59
73016;BME280;61893;50.074;14.440;2022-08-25T06:40:08;98814.63;;;18.93;83.60
73016;BME280;61893;50.074;14.440;2022-08-25T06:42:35;98812.84;;;19.06;82.84
73016;BME280;61893;50.074;14.440;2022-08-25T06:45:02;98813.75;;;18.85;83.43
73016;BME280;61893;50.074;14.440;2022-08-25T06:47:28;98821.25;;;18.90;83.29
73016;BME280;61893;50.074;14.440;2022-08-25T06:49:56;98820.78;;;19.15;82.29
73016;BME280;61893;50.074;14.440;2022-08-25T06:52:26;98822.41;;;19.16;81.93
73016;BME280;61893;50.074;14.440;2022-08-25T06:54:55;98824.56;;;19.33;81.32
73016;BME280;61893;50.074;14.440;2022-08-25T06:57:22;98827.59;;;19.17;81.61
73016;BME280;61893;50.074;14.440;2022-08-25T06:59:47;98823.50;;;19.28;81.73
73016;BME280;61893;50.074;14.440;2022-08-25T07:02:14;98812.78;;;19.41;80.97
73016;BME280;61893;50.074;14.440;2022-08-25T07:05:24;98811.56;;;19.57;80.43
73016;BME280;61893;50.074;14.440;2022-08-25T07:08:14;98803.06;;;19.60;80.55
73016;BME280;61893;50.074;14.440;2022-08-25T07:10:47;98812.91;;;19.74;79.69
73016;BME280;61893;50.074;14.440;2022-08-25T07:13:16;98812.91;;;19.74;79.09
73016;BME280;61893;50.074;14.440;2022-08-25T07:16:20;98818.94;;;19.96;78.59
73016;BME280;61893;50.074;14.440;2022-08-25T07:19:09;98813.34;;;19.98;78.29
73016;BME280;61893;50.074;14.440;2022-08-25T07:22:12;98809.59;;;20.06;78.00
73016;BME280;61893;50.074;14.440;2022-08-25T07:24:43;98812.31;;;19.99;78.48
73016;BME280;61893;50.074;14.440;2022-08-25T07:27:48;98813.53;;;19.96;78.28
73016;BME280;61893;50.074;14.440;2022-08-25T07:30:33;98808.81;;;20.12;77.60
73016;BME280;61893;50.074;14.440;2022-08-25T07:33:06;98805.03;;;20.19;77.58
73016;BME280;61893;50.074;14.440;2022-08-25T07:36:36;98810.25;;;20.28;76.71
73016;BME280;61893;50.074;14.440;2022-08-25T07:39:52;98795.28;;;20.38;76.54
73016;BME280;61893;50.074;14.440;2022-08-25T07:42:20;98791.75;;;20.64;75.04
73016;BME280;61893;50.074;14.440;2022-08-25T07:45:41;98786.34;;;20.58;75.39
73016;BME280;61893;50.074;14.440;2022-08-25T07:48:28;98795.72;;;20.55;75.43
73016;BME280;61893;50.074;14.440;2022-08-25T07:51:33;98788.75;;;20.92;74.64
73016;BME280;61893;50.074;14.440;2022-08-25T07:54:28;98792.44;;;21.05;74.05
73016;BME280;61893;50.074;14.440;2022-08-25T07:56:55;98792.25;;;21.00;74.05
73016;BME280;61893;50.074;14.440;2022-08-25T07:59:44;98791.50;;;21.31;73.40
73016;BME280;61893;50.074;14.440;2022-08-25T08:02:29;98791.44;;;21.51;73.10
73016;BME280;61893;50.074;14.440;2022-08-25T08:05:24;98788.16;;;21.35;73.22
73016;BME280;61893;50.074;14.440;2022-08-25T08:08:18;98787.41;;;21.22;72.86
73016;BME280;61893;50.074;14.440;2022-08-25T08:11:32;98785.81;;;21.52;72.53
73016;BME280;61893;50.074;14.440;2022-08-25T08:14:40;98780.47;;;21.39;71.87
73016;BME280;61893;50.074;14.440;2022-08-25T08:17:38;98773.50;;;21.56;71.78
73016;BME280;61893;50.074;14.440;2022-08-25T08:20:14;98776.25;;;21.81;71.09
73016;BME280;61893;50.074;14.440;2022-08-25T08:22:41;98776.72;;;21.40;71.54
73016;BME280;61893;50.074;14.440;2022-08-25T08:25:09;98772.63;;;21.63;71.07
73016;BME280;61893;50.074;14.440;2022-08-25T08:27:40;98777.59;;;21.66;70.96
73016;BME280;61893;50.074;14.440;2022-08-25T08:30:46;98780.50;;;21.71;71.29
73016;BME280;61893;50.074;14.440;2022-08-25T08:33:50;98763.78;;;21.80;71.27
73016;BME280;61893;50.074;14.440;2022-08-25T08:36:42;98762.47;;;21.90;70.95
73016;BME280;61893;50.074;14.440;2022-08-25T08:40:15;98765.53;;;21.93;70.42
73016;BME280;61893;50.074;14.440;2022-08-25T08:43:11;98759.63;;;22.03;69.74
73016;BME280;61893;50.074;14.440;2022-08-25T08:46:04;98762.50;;;22.08;69.41
73016;BME280;61893;50.074;14.440;2022-08-25T08:48:47;98756.44;;;22.13;70.08
73016;BME280;61893;50.074;14.440;2022-08-25T08:51:36;98759.28;;;22.24;69.84
73016;BME280;61893;50.074;14.440;2022-08-25T08:54:48;98763.59;;;22.32;70.27
73016;BME280;61893;50.074;14.440;2022-08-25T08:58:07;98760.28;;;22.30;70.00
73016;BME280;61893;50.074;14.440;2022-08-25T09:00:54;98753.91;;;22.61;68.87
73016;BME280;61893;50.074;14.440;2022-08-25T09:03:42;98750.06;;;22.69;67.76
73016;BME280;61893;50.074;14.440;2022-08-25T09:06:47;98749.56;;;22.97;66.89
73016;BME280;61893;50.074;14.440;2022-08-25T09:09:33;98741.81;;;23.01;66.72
73016;BME280;61893;50.074;14.440;2022-08-25T09:15:54;98750.94;;;23.36;64.96
73016;BME280;61893;50.074;14.440;2022-08-25T09:29:08;98732.69;;;23.86;63.06
73016;BME280;61893;50.074;14.440;2022-08-25T09:31:38;98715.22;;;23.93;63.35
73016;BME280;61893;50.074;14.440;2022-08-25T09:34:45;98715.25;;;24.05;62.91
73016;BME280;61893;50.074;14.440;2022-08-25T09:38:04;98713.22;;;24.12;62.73
73016;BME280;61893;50.074;14.440;2022-08-25T09:40:37;98713.59;;;24.39;61.60
73016;BME280;61893;50.074;14.440;2022-08-25T09:43:35;98710.88;;;24.39;61.78
73016;BME280;61893;50.074;14.440;2022-08-25T09:48:50;98705.56;;;24.56;61.57
73016;BME280;61893;50.074;14.440;2022-08-25T09:51:39;98696.91;;;24.12;62.13
73016;BME280;61893;50.074;14.440;2022-08-25T09:54:23;98696.56;;;24.20;62.11
73016;BME280;61893;50.074;14.440;2022-08-25T09:57:31;98683.91;;;24.38;61.90
73016;BME280;61893;50.074;14.440;2022-08-25T10:06:02;98676.34;;;24.92;59.99
73016;BME280;61893;50.074;14.440;2022-08-25T10:11:50;98676.81;;;24.37;61.57
73016;BME280;61893;50.074;14.440;2022-08-25T10:14:40;98679.22;;;24.85;60.41
73016;BME280;61893;50.074;14.440;2022-08-25T10:17:25;98676.56;;;25.02;59.91
73016;BME280;61893;50.074;14.440;2022-08-25T10:22:41;98678.44;;;25.13;59.72
73016;BME280;61893;50.074;14.440;2022-08-25T10:25:43;98681.56;;;24.93;60.62
73016;BME280;61893;50.074;14.440;2022-08-25T10:28:19;98675.31;;;24.93;60.20
73016;BME280;61893;50.074;14.440;2022-08-25T10:37:15;98666.34;;;25.21;59.34
73016;BME280;61893;50.074;14.440;2022-08-25T10:46:03;98651.75;;;25.27;60.05
73016;BME280;61893;50.074;14.440;2022-08-25T10:54:57;98654.81;;;26.15;56.87
73016;BME280;61893;50.074;14.440;2022-08-25T10:57:41;98655.44;;;26.00;57.58
73016;BME280;61893;50.074;14.440;2022-08-25T11:00:16;98659.72;;;26.13;57.97
73016;BME280;61893;50.074;14.440;2022-08-25T11:05:58;98647.31;;;26.22;57.11
73016;BME280;61893;50.074;14.440;2022-08-25T11:08:52;98637.47;;;26.43;56.87
73016;BME280;61893;50.074;14.440;2022-08-25T11:11:41;98640.50;;;26.64;55.49
73016;BME280;61893;50.074;14.440;2022-08-25T11:17:57;98642.78;;;25.77;57.92
73016;BME280;61893;50.074;14.440;2022-08-25T11:20:29;98644.78;;;25.65;58.53
73016;BME280;61893;50.074;14.440;2022-08-25T11:23:20;98637.13;;;26.18;57.23
73016;BME280;61893;50.074;14.440;2022-08-25T11:25:52;98641.22;;;26.76;55.64
73016;BME280;61893;50.074;14.440;2022-08-25T11:29:00;98638.06;;;26.45;56.46
73016;BME280;61893;50.074;14.440;2022-08-25T11:31:27;98637.44;;;27.04;54.94
73016;BME280;61893;50.074;14.440;2022-08-25T11:33:59;98628.31;;;27.21;54.07
73016;BME280;61893;50.074;14.440;2022-08-25T11:36:37;98640.19;;;26.82;55.42
73016;BME280;61893;50.074;14.440;2022-08-25T11:51:27;98610.28;;;28.26;50.64
73016;BME280;61893;50.074;14.440;2022-08-25T12:02:42;98612.78;;;28.38;50.35
73016;BME280;61893;50.074;14.440;2022-08-25T12:08:52;98601.75;;;28.75;48.77
73016;BME280;61893;50.074;14.440;2022-08-25T12:14:34;98597.25;;;29.42;47.26
73016;BME280;61893;50.074;14.440;2022-08-25T12:17:16;98587.91;;;29.28;46.77
73016;BME280;61893;50.074;14.440;2022-08-25T12:25:29;98583.94;;;28.63;48.05
73016;BME280;61893;50.074;14.440;2022-08-25T12:43:28;98564.00;;;30.05;45.33
73016;BME280;61893;50.074;14.440;2022-08-25T12:46:41;98562.13;;;29.75;44.58
73016;BME280;61893;50.074;14.440;2022-08-25T12:49:31;98552.50;;;28.86;47.04
73016;BME280;61893;50.074;14.440;2022-08-25T12:55:32;98549.78;;;29.78;44.97
73016;BME280;61893;50.074;14.440;2022-08-25T12:58:32;98550.56;;;29.99;44.65
73016;BME280;61893;50.074;14.440;2022-08-25T13:01:25;98549.66;;;30.19;43.51
73016;BME280;61893;50.074;14.440;2022-08-25T13:04:32;98553.34;;;29.58;45.68
73016;BME280;61893;50.074;14.440;2022-08-25T13:11:58;98535.78;;;29.95;44.48
73016;BME280;61893;50.074;14.440;2022-08-25T13:14:23;98525.97;;;31.32;42.06
73016;BME280;61893;50.074;14.440;2022-08-25T13:16:57;98525.72;;;31.29;41.84
73016;BME280;61893;50.074;14.440;2022-08-25T13:19:48;98522.16;;;30.94;42.21
73016;BME280;61893;50.074;14.440;2022-08-25T13:22:16;98519.97;;;30.41;44.08
73016;BME280;61893;50.074;14.440;2022-08-25T13:24:58;98512.94;;;31.48;42.01
73016;BME280;61893;50.074;14.440;2022-08-25T13:28:17;98519.41;;;30.94;42.11
73016;BME280;61893;50.074;14.440;2022-08-25T13:31:35;98516.75;;;28.35;48.65
73016;BME280;61893;50.074;14.440;2022-08-25T13:34:28;98516.34;;;28.84;47.84
73016;BME280;61893;50.074;14.440;2022-08-25T13:37:24;98511.59;;;27.85;50.51
73016;BME280;61893;50.074;14.440;2022-08-25T13:40:20;98509.66;;;27.81;51.08
73016;BME280;61893;50.074;14.440;2022-08-25T13:43:22;98511.78;;;27.74;51.15
73016;BME280;61893;50.074;14.440;2022-08-25T13:46:22;98505.22;;;27.27;52.68
73016;BME280;61893;50.074;14.440;2022-08-25T13:49:27;98504.63;;;26.98;52.90
73016;BME280;61893;50.074;14.440;2022-08-25T13:51:58;98500.66;;;27.11;52.28
73016;BME280;61893;50.074;14.440;2022-08-25T13:55:05;98492.88;;;27.25;52.71
73016;BME280;61893;50.074;14.440;2022-08-25T13:57:33;98496.34;;;27.52;51.43
73016;BME280;61893;50.074;14.440;2022-08-25T14:00:35;98487.56;;;27.93;50.75
73016;BME280;61893;50.074;14.440;2022-08-25T14:03:38;98487.88;;;28.80;47.91
73016;BME280;61893;50.074;14.440;2022-08-25T14:06:45;98492.53;;;29.35;46.40
73016;BME280;61893;50.074;14.440;2022-08-25T14:09:22;98484.59;;;29.24;46.13
73016;BME280;61893;50.074;14.440;2022-08-25T14:12:02;98475.53;;;30.84;42.53
73016;BME280;61893;50.074;14.440;2022-08-25T14:14:31;98474.38;;;30.45;43.42
73016;BME280;61893;50.074;14.440;2022-08-25T14:17:03;98463.19;;;31.45;41.45
73016;BME280;61893;50.074;14.440;2022-08-25T14:20:47;98474.69;;;31.17;42.28
73016;BME280;61893;50.074;14.440;2022-08-25T14:23:20;98473.59;;;31.77;41.10
73016;BME280;61893;50.074;14.440;2022-08-25T14:26:00;98464.38;;;31.86;40.47
73016;BME280;61893;50.074;14.440;2022-08-25T14:28:39;98469.59;;;31.64;40.19
73016;BME280;61893;50.074;14.440;2022-08-25T14:31:14;98466.78;;;31.69;39.84
73016;BME280;61893;50.074;14.440;2022-08-25T14:34:09;98467.59;;;31.70;40.36
73016;BME280;61893;50.074;14.440;2022-08-25T14:36:51;98463.44;;;31.48;40.34
73016;BME280;61893;50.074;14.440;2022-08-25T14:39:18;98466.19;;;31.72;40.26
73016;BME280;61893;50.074;14.440;2022-08-25T14:42:11;98463.72;;;32.00;39.92
73016;BME280;61893;50.074;14.440;2022-08-25T14:45:02;98459.03;;;31.18;41.21
73016;BME280;61893;50.074;14.440;2022-08-25T14:47:28;98460.81;;;30.09;44.39
73016;BME280;61893;50.074;14.440;2022-08-25T14:49:56;98459.34;;;30.77;42.68
73016;BME280;61893;50.074;14.440;2022-08-25T14:52:27;98455.38;;;31.57;40.81
73016;BME280;61893;50.074;14.440;2022-08-25T14:55:07;98453.22;;;31.54;41.06
73016;BME280;61893;50.074;14.440;2022-08-25T14:57:38;98451.56;;;30.89;42.29
73016;BME280;61893;50.074;14.440;2022-08-25T15:00:10;98450.34;;;31.64;40.62
73016;BME280;61893;50.074;14.440;2022-08-25T15:02:42;98445.31;;;31.95;39.43
73016;BME280;61893;50.074;14.440;2022-08-25T15:05:22;98450.34;;;31.88;39.41
73016;BME280;61893;50.074;14.440;2022-08-25T15:13:46;98445.00;;;32.40;38.24
73016;BME280;61893;50.074;14.440;2022-08-25T15:16:26;98442.75;;;32.23;38.28
73016;BME280;61893;50.074;14.440;2022-08-25T15:18:52;98433.13;;;32.01;39.26
73016;BME280;61893;50.074;14.440;2022-08-25T15:21:19;98428.38;;;31.59;39.47
73016;BME280;61893;50.074;14.440;2022-08-25T15:23:58;98435.19;;;31.91;39.69
73016;BME280;61893;50.074;14.440;2022-08-25T15:26:25;98426.22;;;31.80;39.76
73016;BME280;61893;50.074;14.440;2022-08-25T15:28:51;98421.94;;;31.15;40.60
73016;BME280;61893;50.074;14.440;2022-08-25T15:31:20;98424.00;;;32.44;37.99
73016;BME280;61893;50.074;14.440;2022-08-25T15:34:01;98424.88;;;32.39;38.20
73016;BME280;61893;50.074;14.440;2022-08-25T15:36:27;98427.16;;;32.56;38.13
73016;BME280;61893;50.074;14.440;2022-08-25T15:38:56;98423.03;;;32.35;38.60
73016;BME280;61893;50.074;14.440;2022-08-25T15:41:39;98432.44;;;31.91;39.30
73016;BME280;61893;50.074;14.440;2022-08-25T15:44:06;98428.31;;;32.12;39.32
73016;BME280;61893;50.074;14.440;2022-08-25T15:47:01;98427.59;;;32.25;38.72
73016;BME280;61893;50.074;14.440;2022-08-25T15:49:51;98420.34;;;32.11;39.42
73016;BME280;61893;50.074;14.440;2022-08-25T15:52:43;98416.31;;;31.31;40.83
73016;BME280;61893;50.074;14.440;2022-08-25T15:55:26;98416.06;;;30.98;40.73
73016;BME280;61893;50.074;14.440;2022-08-25T15:58:08;98405.81;;;31.09;40.13
73016;BME280;61893;50.074;14.440;2022-08-25T16:00:37;98408.91;;;30.18;42.25
73016;BME280;61893;50.074;14.440;2022-08-25T16:03:02;98409.38;;;29.81;42.71
73016;BME280;61893;50.074;14.440;2022-08-25T16:05:51;98407.81;;;29.49;43.56
73016;BME280;61893;50.074;14.440;2022-08-25T16:08:17;98411.16;;;29.26;43.73
73016;BME280;61893;50.074;14.440;2022-08-25T16:10:56;98411.47;;;28.68;45.26
73016;BME280;61893;50.074;14.440;2022-08-25T16:13:36;98407.00;;;28.26;47.24
73016;BME280;61893;50.074;14.440;2022-08-25T16:16:03;98397.41;;;28.23;47.22
73016;BME280;61893;50.074;14.440;2022-08-25T16:18:44;98391.91;;;28.08;47.84
73016;BME280;61893;50.074;14.440;2022-08-25T16:21:30;98401.63;;;27.78;47.91
73016;BME280;61893;50.074;14.440;2022-08-25T16:24:13;98406.25;;;27.73;48.54
73016;BME280;61893;50.074;14.440;2022-08-25T16:26:39;98396.16;;;27.73;48.47
73016;BME280;61893;50.074;14.440;2022-08-25T16:29:22;98398.28;;;27.61;49.08